Time;durP1;ratioP1;P1;durP2;ratioP2;P2;SDS_P1;SDS_P2;PMS_P1;PMS_P2;Temp;Humidity;BMP_temperature;BMP_pressure;BME280_temperature;BME280_humidity;BME280_pressure;Samples;Min_cycle;Max_cycle;Signal;HPM_P1;HPM_P2
2023/01/16 00:00:23;;;;;;;4.03;1.53;;;1.70;86.20;;;1.14;80.47;96856.72;5044165;28;20956;-71
2023/01/16 00:02:50;;;;;;;2.40;1.20;;;1.70;86.20;;;1.21;80.25;96856.81;5049736;28;20948;-72
2023/01/16 00:05:18;;;;;;;2.57;1.80;;;1.80;86.40;;;1.28;79.99;96847.06;5029220;28;20992;-72
2023/01/16 00:07:46;;;;;;;3.73;1.63;;;1.80;85.60;;;1.24;79.76;96835.16;5045900;28;21347;-71
2023/01/16 00:10:16;;;;;;;2.67;1.97;;;1.80;85.50;;;0.98;80.01;96802.69;5032738;28;20842;-71
2023/01/16 00:12:43;;;;;;;1.80;1.10;;;1.80;85.20;;;1.21;79.92;96833.69;5051601;28;20483;-71
2023/01/16 00:15:12;;;;;;;3.73;1.93;;;1.80;85.50;;;1.27;79.56;96834.78;5049377;28;20475;-71
2023/01/16 00:17:39;;;;;;;1.80;1.20;;;1.80;84.80;;;1.17;79.67;96810.31;5043525;28;20447;-71
2023/01/16 00:20:08;;;;;;;2.10;1.10;;;1.90;84.80;;;1.33;79.27;96823.41;5042103;28;20454;-71
2023/01/16 00:22:35;;;;;;;2.63;1.50;;;1.90;84.50;;;1.24;79.65;96824.50;5056545;28;20466;-73
2023/01/16 00:25:03;;;;;;;5.90;2.07;;;1.80;85.00;;;1.18;79.27;96814.63;5038612;28;20449;-71
2023/01/16 00:27:30;;;;;;;3.63;1.57;;;1.80;84.40;;;1.35;79.22;96832.03;5034307;28;20485;-72
2023/01/16 00:29:57;;;;;;;1.40;1.30;;;1.80;84.70;;;1.34;79.00;96825.06;5032986;28;20754;-71
2023/01/16 00:32:26;;;;;;;2.97;1.40;;;1.90;84.60;;;1.34;78.87;96829.53;5050438;28;20836;-74
2023/01/16 00:34:53;;;;;;;2.90;1.20;;;1.90;83.80;;;1.36;78.38;96799.06;5029717;28;20482;-72
2023/01/16 00:37:20;;;;;;;1.53;1.23;;;2.00;83.40;;;1.53;77.86;96818.31;5042084;28;20447;-71
2023/01/16 00:39:48;;;;;;;2.20;1.13;;;2.10;83.20;;;1.49;77.87;96805.56;5027612;28;20442;-72
2023/01/16 00:42:16;;;;;;;1.70;1.43;;;2.10;83.00;;;1.51;78.02;96814.19;5047913;28;20528;-71
2023/01/16 00:44:43;;;;;;;2.50;1.17;;;2.00;82.90;;;1.47;77.78;96807.59;5046283;28;20460;-72
2023/01/16 00:47:10;;;;;;;3.40;1.37;;;2.00;82.90;;;1.23;78.06;96774.97;5049837;28;20468;-72
2023/01/16 00:49:39;;;;;;;3.50;1.20;;;1.90;82.90;;;0.50;78.27;96667.47;5041193;28;20514;-72
2023/01/16 00:52:07;;;;;;;2.00;1.20;;;1.90;83.20;;;1.35;78.22;96784.13;5038382;28;20829;-72
2023/01/16 00:54:34;;;;;;;4.40;1.50;;;1.90;83.30;;;1.37;77.97;96782.09;5043965;28;20498;-72
2023/01/16 00:57:01;;;;;;;1.43;1.13;;;1.80;82.80;;;1.32;78.30;96784.50;5041586;28;20449;-71
2023/01/16 00:59:29;;;;;;;3.20;1.50;;;1.80;83.20;;;1.25;77.96;96772.94;5030702;28;20464;-72
2023/01/16 01:01:56;;;;;;;2.77;1.13;;;1.80;82.90;;;1.20;77.99;96775.34;5049574;28;20461;-72
2023/01/16 01:04:23;;;;;;;3.00;1.00;;;1.80;82.70;;;1.24;78.00;96773.94;5024879;28;20450;-71
2023/01/16 01:06:52;;;;;;;1.80;0.97;;;1.80;82.90;;;0.89;78.10;96710.69;5053701;28;20460;-71
2023/01/16 01:09:19;;;;;;;2.97;1.30;;;1.80;82.70;;;1.24;77.89;96771.28;5041550;28;20767;-72
2023/01/16 01:11:46;;;;;;;0.97;0.97;;;1.80;82.70;;;1.24;78.07;96768.63;5043514;28;20448;-71
2023/01/16 01:14:14;;;;;;;3.10;1.40;;;1.80;82.80;;;1.27;78.05;96757.59;5052429;28;20513;-72
2023/01/16 01:16:41;;;;;;;2.10;1.37;;;1.80;82.80;;;1.09;78.03;96736.75;5029203;28;20465;-71
2023/01/16 01:19:08;;;;;;;2.23;1.33;;;1.80;83.00;;;1.22;78.23;96760.00;5034272;28;20497;-71
2023/01/16 01:21:36;;;;;;;4.30;1.53;;;1.80;82.80;;;1.16;77.90;96742.13;5046408;28;20462;-70
2023/01/16 01:24:04;;;;;;;1.97;1.43;;;1.80;82.70;;;1.26;77.64;96753.28;5050465;28;21240;-71
2023/01/16 01:26:31;;;;;;;3.70;1.67;;;1.80;82.30;;;1.30;77.52;96738.63;5049729;28;20560;-72
2023/01/16 01:28:59;;;;;;;2.30;1.07;;;1.80;82.20;;;1.25;77.77;96741.00;5029507;28;20461;-71
2023/01/16 01:31:26;;;;;;;3.13;1.13;;;1.80;82.50;;;1.16;77.84;96744.81;5049550;28;20465;-71
2023/01/16 01:33:53;;;;;;;4.63;1.30;;;1.70;82.50;;;1.16;77.87;96742.13;5029609;28;20549;-72
2023/01/16 01:36:20;;;;;;;2.60;1.50;;;1.70;82.20;;;1.17;77.85;96730.47;5048980;28;20478;-71
2023/01/16 01:38:50;;;;;;;1.70;1.20;;;1.70;82.50;;;1.03;78.49;96732.16;5033016;28;20929;-71
2023/01/16 01:41:19;;;;;;;1.93;1.30;;;1.60;82.70;;;1.00;78.49;96728.03;5033590;28;20816;-72
2023/01/16 01:43:49;;;;;;;2.40;1.40;;;1.60;82.90;;;1.07;78.16;96722.81;5032292;28;20484;-73
2023/01/16 01:46:27;;;;;;;2.27;1.30;;;1.70;82.90;;;1.07;78.34;96723.59;5049385;28;20445;-72
2023/01/16 01:48:59;;;;;;;2.80;1.20;;;1.70;82.90;;;0.87;78.50;96690.66;5042807;28;20932;-72
2023/01/16 01:51:31;;;;;;;2.40;1.33;;;1.60;82.90;;;1.12;78.60;96715.06;5035412;28;20458;-72
2023/01/16 01:54:04;;;;;;;2.43;1.50;;;1.60;83.30;;;1.16;78.52;96704.88;5043785;28;20558;-72
2023/01/16 01:56:38;;;;;;;1.90;1.23;;;1.70;83.30;;;1.13;78.43;96696.25;5044544;28;20464;-73
2023/01/16 01:59:12;;;;;;;2.93;1.13;;;1.80;83.10;;;1.12;78.15;96683.16;5023116;28;20465;-72
2023/01/16 02:01:40;;;;;;;2.77;1.07;;;1.80;82.70;;;1.11;78.20;96681.50;5038551;28;20453;-73
2023/01/16 02:04:14;;;;;;;3.37;1.20;;;1.70;82.50;;;1.21;77.78;96691.84;5065359;28;20432;-70
2023/01/16 02:06:46;;;;;;;2.07;1.40;;;1.70;82.80;;;1.07;77.96;96689.03;5030134;28;20446;-71
2023/01/16 02:09:16;;;;;;;6.73;1.20;;;1.60;82.30;;;1.05;78.10;96672.44;5022654;28;20452;-70
2023/01/16 02:11:49;;;;;;;3.77;1.30;;;1.60;82.80;;;1.00;78.69;96682.81;5042267;28;20452;-71
2023/01/16 02:14:18;;;;;;;3.00;1.30;;;1.60;83.30;;;1.12;78.04;96683.97;5046947;28;20488;-70
2023/01/16 02:19:43;;;;;;;3.90;1.40;;;1.60;82.90;;;0.84;78.34;96642.13;5049396;28;20456;-71
2023/01/16 02:22:56;;;;;;;2.00;0.93;;;1.60;82.80;;;1.02;78.41;96646.22;5054492;28;20466;-71
2023/01/16 02:26:14;;;;;;;3.87;1.60;;;1.60;83.20;;;1.05;78.46;96640.50;4965525;28;20456;-73
2023/01/16 02:29:13;;;;;;;1.70;0.93;;;1.60;83.20;;;1.07;78.22;96643.00;4987195;28;20957;-72
2023/01/16 02:31:49;;;;;;;2.17;1.10;;;1.70;82.70;;;1.16;77.87;96633.06;5059844;28;20478;-72
2023/01/16 02:34:35;;;;;;;1.50;1.20;;;1.70;82.20;;;1.20;77.72;96600.53;5033607;28;20955;-73
2023/01/16 02:37:17;;;;;;;1.90;1.00;;;1.80;82.50;;;1.39;76.95;96615.03;5045977;28;20467;-71
2023/01/16 02:39:54;;;;;;;2.97;1.20;;;1.90;81.80;;;1.34;76.91;96588.19;5042099;28;20773;-73
2023/01/16 02:42:30;;;;;;;1.57;1.30;;;1.90;81.90;;;1.35;76.94;96600.47;5046977;28;20481;-71
2023/01/16 02:45:07;;;;;;;3.67;1.10;;;2.00;81.20;;;1.54;76.21;96591.00;5049370;28;20461;-72
2023/01/16 02:47:44;;;;;;;1.10;0.97;;;2.00;81.10;;;1.57;75.91;96587.13;5045601;28;20952;-73
2023/01/16 02:50:23;;;;;;;2.37;1.27;;;2.10;80.70;;;1.64;75.97;96585.34;5026118;28;20457;-72
2023/01/16 02:52:58;;;;;;;1.73;1.20;;;2.20;80.30;;;1.70;75.00;96583.75;5050083;28;20491;-72
2023/01/16 02:55:32;;;;;;;1.57;1.00;;;2.30;80.00;;;1.75;75.25;96570.66;5028790;28;20477;-73
2023/01/16 02:58:03;;;;;;;1.90;0.87;;;2.30;79.90;;;1.74;74.88;96557.53;5048926;28;20452;-72
2023/01/16 03:00:31;;;;;;;2.07;1.07;;;2.40;79.80;;;1.63;75.32;96566.88;5041983;28;20515;-72
2023/01/16 03:03:00;;;;;;;1.27;0.70;;;2.30;79.40;;;1.63;75.08;96550.91;5031563;28;20507;-70
2023/01/16 03:05:30;;;;;;;2.13;0.87;;;2.30;79.30;;;1.70;74.99;96547.28;5027224;28;20584;-71
2023/01/16 03:08:26;;;;;;;2.00;0.80;;;2.30;79.50;;;1.67;75.21;96553.00;5026234;28;20854;-71
2023/01/16 03:11:23;;;;;;;1.37;0.80;;;2.30;79.60;;;1.66;75.01;96539.88;5045870;28;20506;-72
2023/01/16 03:14:28;;;;;;;1.80;0.83;;;2.30;79.40;;;1.40;74.97;96504.91;5014174;28;20777;-70
2023/01/16 03:17:19;;;;;;;2.30;0.90;;;2.30;79.20;;;1.64;74.85;96531.25;5047920;28;20458;-70
2023/01/16 03:20:10;;;;;;;1.73;1.00;;;2.30;79.00;;;1.65;74.49;96522.25;5033868;28;20963;-72
2023/01/16 03:22:43;;;;;;;2.50;1.10;;;2.30;79.00;;;1.76;74.17;96518.25;5043860;28;20461;-72
2023/01/16 03:25:24;;;;;;;2.67;1.17;;;2.30;78.60;;;1.74;74.20;96513.09;5041776;28;20456;-70
2023/01/16 03:28:06;;;;;;;2.23;0.93;;;2.40;78.70;;;1.75;73.97;96517.41;5050195;28;20530;-71
2023/01/16 03:30:46;;;;;;;2.00;0.90;;;2.40;78.40;;;1.74;73.74;96506.94;5040333;28;20457;-72
2023/01/16 03:33:23;;;;;;;1.53;0.80;;;2.40;78.00;;;1.90;73.57;96498.66;5025715;28;20572;-72
2023/01/16 03:35:57;;;;;;;1.43;1.00;;;2.50;78.20;;;1.68;73.42;96473.94;5047770;28;20973;-71
2023/01/16 03:38:27;;;;;;;3.83;0.90;;;2.50;77.90;;;1.85;72.97;96474.44;5051309;28;20466;-72
2023/01/16 03:41:00;;;;;;;1.33;0.67;;;2.50;77.70;;;1.79;73.13;96464.56;5046124;28;20921;-72
2023/01/16 03:43:32;;;;;;;1.17;0.87;;;2.50;77.60;;;1.84;73.14;96462.13;5033153;28;20881;-71
2023/01/16 03:46:05;;;;;;;1.00;0.80;;;2.50;77.40;;;1.76;73.13;96438.34;5039479;28;20465;-71
2023/01/16 03:48:39;;;;;;;2.00;1.03;;;2.40;77.50;;;1.59;73.97;96438.66;5053053;28;20845;-72
2023/01/16 03:51:11;;;;;;;2.40;0.80;;;2.30;77.50;;;1.58;73.82;96423.69;5023168;28;20813;-71
2023/01/16 03:53:43;;;;;;;2.17;0.80;;;2.20;77.80;;;1.38;74.50;96408.47;5032639;28;20995;-70
2023/01/16 03:56:18;;;;;;;1.60;0.93;;;2.10;77.90;;;1.29;74.66;96412.31;5054814;28;20455;-70
2023/01/16 03:58:48;;;;;;;1.10;1.00;;;2.00;78.00;;;0.88;75.06;96357.22;5034917;28;20502;-70
2023/01/16 04:01:28;;;;;;;2.07;1.30;;;1.90;78.30;;;1.24;75.20;96410.22;5051779;28;20487;-70
2023/01/16 04:04:04;;;;;;;6.43;0.90;;;1.90;78.50;;;1.10;75.18;96404.00;5050080;28;20444;-70
2023/01/16 04:06:40;;;;;;;1.20;0.80;;;1.80;78.70;;;1.08;75.42;96406.03;5060831;28;20457;-69
2023/01/16 04:09:14;;;;;;;1.93;1.00;;;1.80;78.90;;;1.00;75.71;96400.88;5046177;28;20470;-70
2023/01/16 04:11:43;;;;;;;2.07;0.93;;;1.70;79.00;;;1.02;76.27;96414.78;5060658;28;20464;-69
2023/01/16 04:14:13;;;;;;;2.90;0.80;;;1.70;79.10;;;0.98;76.12;96400.22;5011609;28;20464;-70
2023/01/16 04:16:42;;;;;;;2.83;0.90;;;1.60;79.40;;;0.87;76.44;96387.47;5045939;28;20449;-71
2023/01/16 04:19:13;;;;;;;2.63;1.30;;;1.60;79.80;;;0.70;77.79;96388.56;5046229;28;20457;-71
2023/01/16 04:21:46;;;;;;;4.37;1.20;;;1.40;80.70;;;0.53;78.69;96382.72;5055544;28;20449;-70
2023/01/16 04:24:14;;;;;;;1.47;0.93;;;1.20;82.00;;;0.40;79.72;96367.47;5054820;28;20829;-70
2023/01/16 04:26:42;;;;;;;1.90;1.03;;;1.10;83.90;;;0.35;79.76;96369.06;5047594;28;20461;-71
2023/01/16 04:29:09;;;;;;;1.83;0.80;;;1.00;85.20;;;0.10;81.19;96366.81;5030157;28;20558;-70
2023/01/16 04:31:36;;;;;;;1.90;0.93;;;0.90;86.70;;;0.06;81.55;96365.53;5047651;28;20856;-71
2023/01/16 04:34:03;;;;;;;1.90;1.23;;;0.80;87.60;;;0.05;81.81;96363.88;5027414;28;20530;-70
2023/01/16 04:36:32;;;;;;;1.23;0.73;;;0.70;88.60;;;-0.01;82.28;96352.16;5048774;28;20460;-72
2023/01/16 04:39:00;;;;;;;1.67;1.20;;;0.70;89.00;;;-0.09;82.65;96347.81;5043670;28;20475;-71
2023/01/16 04:41:37;;;;;;;5.80;1.37;;;0.60;90.00;;;-0.87;83.09;96251.03;5028377;28;20456;-71
2023/01/16 04:44:07;;;;;;;7.30;1.20;;;0.50;90.10;;;-0.39;83.77;96342.59;5028489;28;20510;-71
2023/01/16 04:46:35;;;;;;;3.63;0.97;;;0.40;90.60;;;-0.45;84.66;96332.75;5033099;28;20461;-71
2023/01/16 04:49:02;;;;;;;3.67;1.77;;;0.30;91.20;;;-0.50;84.63;96329.81;5031889;28;20708;-70
2023/01/16 04:51:30;;;;;;;1.73;1.20;;;0.30;91.40;;;-0.43;84.58;96325.41;5031788;28;20461;-71
2023/01/16 04:53:57;;;;;;;3.40;1.17;;;0.30;91.50;;;-0.37;83.95;96319.38;5052197;28;20454;-71
2023/01/16 04:56:29;;;;;;;2.57;1.57;;;0.30;91.60;;;-0.49;84.07;96310.25;5030952;28;20580;-71
2023/01/16 04:58:56;;;;;;;1.13;0.90;;;0.20;91.50;;;-0.79;84.52;96257.25;5030612;28;20492;-72
2023/01/16 05:01:24;;;;;;;1.30;1.00;;;0.20;91.80;;;-0.54;84.72;96309.97;5044243;28;20464;-72
2023/01/16 05:03:53;;;;;;;3.63;1.40;;;0.20;91.80;;;-0.52;84.76;96289.41;5029603;28;20823;-71
2023/01/16 05:06:20;;;;;;;2.00;0.93;;;0.20;91.90;;;-0.49;84.92;96299.63;5040064;28;20465;-72
2023/01/16 05:08:47;;;;;;;2.13;1.00;;;0.20;91.70;;;-0.56;85.09;96288.94;5030467;28;20789;-71
2023/01/16 05:11:15;;;;;;;1.53;0.83;;;0.20;92.00;;;-0.77;84.99;96250.75;5039772;28;20505;-72
2023/01/16 05:13:43;;;;;;;2.20;1.17;;;0.20;91.80;;;-0.54;84.68;96278.13;5045472;28;20447;-72
2023/01/16 05:16:12;;;;;;;1.97;1.27;;;0.20;91.60;;;-0.52;84.76;96273.47;5054418;28;20473;-71
2023/01/16 05:18:39;;;;;;;2.20;1.20;;;0.10;91.90;;;-0.61;85.06;96264.78;5056959;28;20450;-71
2023/01/16 05:21:07;;;;;;;3.30;1.60;;;0.20;92.20;;;-0.60;85.45;96269.13;5037322;28;20451;-71
2023/01/16 05:23:34;;;;;;;2.60;1.13;;;0.20;92.10;;;-0.65;85.00;96237.84;5056961;28;20536;-70
2023/01/16 05:26:02;;;;;;;3.23;1.40;;;0.20;92.00;;;-0.64;85.18;96255.41;5041903;28;20449;-70
2023/01/16 05:28:30;;;;;;;2.40;1.40;;;0.10;92.00;;;-0.61;84.91;96244.41;5051761;28;20495;-70
2023/01/16 05:30:58;;;;;;;3.40;1.60;;;0.20;92.00;;;-0.63;84.63;96235.81;5045463;28;20699;-71
2023/01/16 05:33:26;;;;;;;2.90;0.90;;;0.10;92.00;;;-0.65;85.03;96221.91;5041105;28;20509;-69
2023/01/16 05:35:53;;;;;;;3.03;1.20;;;0.20;91.80;;;-0.58;85.26;96230.75;5030850;28;21010;-71
2023/01/16 05:38:21;;;;;;;2.07;1.20;;;0.10;92.10;;;-0.66;85.09;96225.59;5032233;28;20459;-70
2023/01/16 05:40:48;;;;;;;1.80;1.40;;;0.10;91.80;;;-0.67;85.45;96217.81;5031628;28;20796;-72
2023/01/16 05:43:16;;;;;;;2.20;1.60;;;0.10;92.40;;;-0.65;85.44;96213.13;5026937;28;20471;-72
2023/01/16 05:45:43;;;;;;;2.00;1.33;;;0.10;92.60;;;-0.56;85.33;96204.03;5047561;28;20496;-72
2023/01/16 05:48:11;;;;;;;1.23;1.13;;;0.10;92.40;;;-0.45;84.19;96205.38;5044039;28;20921;-71
2023/01/16 05:50:38;;;;;;;3.10;1.40;;;0.20;91.90;;;-0.48;84.28;96192.47;5046237;28;20723;-70
2023/01/16 05:53:05;;;;;;;2.57;1.23;;;0.20;91.80;;;-0.43;84.13;96192.72;5047066;28;20540;-72
2023/01/16 05:55:40;;;;;;;2.07;1.33;;;0.20;91.20;;;-0.31;83.70;96185.91;5023580;28;21001;-71
2023/01/16 05:58:07;;;;;;;2.27;1.33;;;0.40;90.80;;;-0.27;83.49;96174.88;5028276;28;20455;-71
2023/01/16 06:00:35;;;;;;;3.83;1.63;;;0.40;90.60;;;-0.33;83.10;96168.50;5017182;28;20944;-70
2023/01/16 06:03:02;;;;;;;4.43;1.13;;;0.40;90.20;;;-0.17;82.71;96175.38;5040966;28;20513;-70
2023/01/16 06:05:30;;;;;;;3.03;1.27;;;0.50;89.90;;;-0.15;82.35;96171.53;5030261;28;21020;-70
2023/01/16 06:07:57;;;;;;;2.23;1.20;;;0.50;89.20;;;-0.07;82.55;96175.03;5030020;28;20460;-70
2023/01/16 06:10:25;;;;;;;3.93;1.33;;;0.50;90.00;;;-0.08;82.25;96179.53;5046780;28;20540;-71
2023/01/16 06:12:53;;;;;;;4.30;1.80;;;0.50;89.50;;;-0.09;81.92;96167.25;5039468;28;20453;-71
2023/01/16 06:15:20;;;;;;;3.30;1.20;;;0.50;88.90;;;-0.03;82.58;96163.84;5046309;28;20487;-71
2023/01/16 06:17:50;;;;;;;3.37;1.43;;;0.50;90.00;;;-0.20;82.16;96157.19;5043106;28;20927;-71
2023/01/16 06:20:18;;;;;;;2.10;1.27;;;0.50;88.90;;;-0.27;82.32;96149.19;5050649;28;20468;-73
2023/01/16 06:22:46;;;;;;;2.77;1.30;;;0.40;89.20;;;-0.21;82.45;96147.59;5043665;28;20487;-72
2023/01/16 06:25:13;;;;;;;2.80;1.30;;;0.40;89.30;;;-0.21;81.92;96142.28;5043171;28;20581;-72
2023/01/16 06:27:40;;;;;;;1.47;1.20;;;0.40;88.50;;;-0.19;82.64;96129.63;5023623;28;20882;-72
2023/01/16 06:30:10;;;;;;;2.10;1.23;;;0.40;89.00;;;-0.30;82.70;96118.53;5035226;28;20451;-80
2023/01/16 06:32:38;;;;;;;2.77;1.23;;;0.40;89.10;;;-0.25;82.56;96119.78;5031099;28;20495;-78
2023/01/16 06:35:06;;;;;;;1.83;1.37;;;0.40;89.80;;;-0.13;82.01;96122.72;5048839;28;21105;-74
2023/01/16 06:37:33;;;;;;;2.50;1.40;;;0.50;89.30;;;-0.29;82.30;96122.81;5053172;28;20970;-78
2023/01/16 06:40:01;;;;;;;1.63;1.30;;;0.50;88.30;;;-0.30;82.29;96107.09;5051968;28;20939;-77
2023/01/16 06:42:29;;;;;;;3.03;1.50;;;0.40;88.30;;;-0.31;82.30;96105.44;5050446;28;20510;-76
2023/01/16 06:44:56;;;;;;;2.43;1.90;;;0.40;88.70;;;-0.31;82.24;96119.53;5031316;28;20514;-72
2023/01/16 06:47:23;;;;;;;2.47;1.40;;;0.40;88.80;;;-0.39;82.65;96110.91;5042547;28;20446;-79
2023/01/16 06:49:50;;;;;;;1.13;1.07;;;0.30;88.60;;;-0.40;82.40;96104.75;5046327;28;20493;-73
2023/01/16 06:52:17;;;;;;;2.40;1.40;;;0.30;88.40;;;-0.47;82.43;96090.63;5027865;28;20472;-73
2023/01/16 06:54:44;;;;;;;2.23;1.37;;;0.30;88.50;;;-0.54;82.74;96087.09;5045176;28;20457;-81
2023/01/16 06:57:14;;;;;;;4.70;1.53;;;0.30;88.50;;;-0.49;82.69;96095.31;5050526;28;20452;-75
2023/01/16 06:59:41;;;;;;;1.40;1.13;;;0.20;89.50;;;-0.60;82.83;96081.56;5053176;28;20460;-74
2023/01/16 07:02:09;;;;;;;4.70;1.30;;;0.20;89.60;;;-0.57;82.65;96081.16;5051159;28;20719;-73
2023/01/16 07:04:37;;;;;;;3.83;1.60;;;0.20;89.50;;;-0.51;82.69;96073.47;5050867;28;20487;-75
2023/01/16 07:07:04;;;;;;;1.63;1.10;;;0.20;89.60;;;-0.50;82.52;96067.16;5050159;28;20484;-78
2023/01/16 07:09:32;;;;;;;3.07;1.37;;;0.20;89.90;;;-0.49;82.54;96066.13;5036534;28;20460;-79
2023/01/16 07:11:59;;;;;;;1.70;1.50;;;0.20;89.50;;;-0.36;82.09;96060.09;5062317;28;20449;-74
2023/01/16 07:22:44;;;;;;;1.97;1.53;;;0.40;87.50;;;-0.19;81.21;96034.06;5043844;28;20850;-74
2023/01/16 07:25:15;;;;;;;1.17;1.07;;;0.50;86.50;;;-0.22;80.88;96021.19;5024242;28;20448;-72
2023/01/16 07:27:44;;;;;;;2.60;1.30;;;0.60;85.40;;;-0.05;79.69;96025.16;5025120;28;20776;-72
2023/01/16 07:30:13;;;;;;;1.70;1.50;;;0.60;84.40;;;-0.22;80.11;95990.16;5025024;28;20457;-72
2023/01/16 07:32:41;;;;;;;3.13;1.13;;;0.60;84.20;;;-0.05;79.93;96006.56;5035878;28;20518;-73
2023/01/16 07:35:09;;;;;;;3.03;1.20;;;0.70;83.90;;;0.02;79.75;96003.13;5037511;28;20570;-75
2023/01/16 07:37:36;;;;;;;1.60;1.50;;;0.70;83.80;;;-0.01;79.42;95997.19;5036049;28;20475;-72
2023/01/16 07:40:03;;;;;;;1.80;1.20;;;0.70;83.90;;;0.10;79.24;95989.69;5051746;28;20439;-74
2023/01/16 07:42:31;;;;;;;2.33;1.37;;;0.70;83.50;;;0.18;78.76;95978.84;5052238;28;20449;-81
2023/01/16 07:44:58;;;;;;;3.70;1.07;;;0.80;83.10;;;0.03;79.11;95943.69;5037044;28;20471;-74
2023/01/16 07:47:26;;;;;;;3.43;1.53;;;0.80;82.80;;;0.15;78.69;95966.00;5049657;28;20514;-80
2023/01/16 07:49:53;;;;;;;3.77;1.20;;;0.90;82.60;;;0.31;78.51;95961.31;5027082;28;20857;-76
2023/01/16 07:52:21;;;;;;;1.60;1.37;;;0.90;82.20;;;0.27;77.93;95948.44;5051020;28;20453;-76
2023/01/16 07:54:48;;;;;;;3.70;1.77;;;1.00;81.80;;;0.41;77.81;95943.97;5030482;28;20453;-75
2023/01/16 07:57:15;;;;;;;1.77;1.50;;;1.10;81.50;;;0.41;77.52;95948.47;5059748;28;20441;-76
2023/01/16 07:59:42;;;;;;;2.87;1.50;;;1.10;81.00;;;0.65;77.29;95948.91;5054032;28;20473;-74
2023/01/16 08:02:11;;;;;;;3.00;1.53;;;1.20;81.10;;;0.60;76.50;95930.91;5041739;28;20441;-77
2023/01/16 08:04:40;;;;;;;1.50;1.23;;;1.30;80.40;;;0.60;76.36;95927.44;5035510;28;20450;-79
2023/01/16 08:07:07;;;;;;;3.30;1.40;;;1.30;80.10;;;0.46;76.17;95882.25;5032232;28;20725;-75
2023/01/16 08:09:34;;;;;;;1.47;1.00;;;1.40;79.70;;;0.86;76.18;95933.78;5055375;28;20879;-76
2023/01/16 08:12:01;;;;;;;2.70;1.03;;;1.50;80.20;;;0.82;75.86;95923.56;5054035;28;20535;-79
2023/01/16 08:14:29;;;;;;;3.00;1.13;;;1.50;79.30;;;0.86;75.33;95907.22;5051438;28;20460;-78
2023/01/16 08:16:56;;;;;;;1.43;1.13;;;1.60;79.40;;;0.70;74.89;95867.53;5055475;28;20475;-80
2023/01/16 08:19:24;;;;;;;2.00;1.30;;;1.60;78.70;;;0.98;74.80;95908.19;5059077;28;20502;-76
2023/01/16 08:21:52;;;;;;;2.63;1.43;;;1.60;78.40;;;0.64;75.05;95822.34;5049660;28;20952;-76
2023/01/16 08:24:19;;;;;;;1.63;1.30;;;1.70;78.60;;;1.17;74.28;95897.75;5044701;28;20461;-76
2023/01/16 08:26:46;;;;;;;4.20;1.67;;;1.80;78.30;;;1.23;74.32;95892.44;5032437;28;20522;-78
2023/01/16 08:29:13;;;;;;;2.80;1.00;;;1.80;78.10;;;1.26;73.68;95880.53;5024263;28;20855;-75
2023/01/16 08:31:41;;;;;;;2.47;1.20;;;1.80;77.80;;;1.18;73.60;95873.59;5053297;28;20457;-76
2023/01/16 08:34:08;;;;;;;2.30;1.23;;;1.90;77.50;;;1.21;73.50;95856.41;5031554;28;20502;-81
2023/01/16 08:36:35;;;;;;;2.10;1.43;;;1.90;77.40;;;1.41;72.80;95862.47;5047997;28;20684;-76
2023/01/16 08:39:04;;;;;;;1.50;1.40;;;2.00;77.30;;;1.36;72.86;95856.13;5036461;28;20490;-78
2023/01/16 08:52:38;;;;;;;2.43;1.07;;;2.50;75.70;;;1.89;69.93;95814.34;5034721;28;20438;-77
2023/01/16 08:55:08;;;;;;;1.83;1.27;;;2.60;74.90;;;2.09;69.48;95811.56;5052695;28;20465;-79
2023/01/16 08:57:37;;;;;;;1.33;1.10;;;2.70;74.80;;;2.16;69.07;95803.50;5033969;28;20944;-78
2023/01/16 09:00:07;;;;;;;0.80;0.80;;;2.80;74.50;;;2.16;69.21;95795.53;5030155;28;20464;-82
2023/01/16 09:02:36;;;;;;;1.00;0.90;;;2.80;74.10;;;2.43;68.78;95798.78;5051656;28;20468;-76
2023/01/16 09:05:03;;;;;;;3.90;1.00;;;2.90;74.10;;;2.47;67.91;95756.50;5054233;28;20460;-77
2023/01/16 09:07:30;;;;;;;3.07;1.00;;;3.10;73.60;;;2.71;67.07;95778.84;5032098;28;20529;-75
2023/01/16 09:09:58;;;;;;;1.90;1.10;;;3.30;73.10;;;2.50;66.58;95778.22;5055049;28;20461;-79
2023/01/16 09:15:11;;;;;;;2.20;0.70;;;3.40;72.50;;;2.53;66.63;95768.94;5040298;28;20511;-79
2023/01/16 09:17:38;;;;;;;3.33;1.00;;;3.40;71.60;;;2.85;66.14;95771.50;5045568;28;20511;-81
2023/01/16 09:20:07;;;;;;;1.50;1.00;;;3.40;71.90;;;2.89;65.38;95758.56;5042149;28;20445;-76
2023/01/16 09:22:35;;;;;;;2.70;1.40;;;3.50;71.60;;;2.68;65.30;95684.09;5049891;28;20450;-79
2023/01/16 09:25:02;;;;;;;2.40;1.87;;;3.70;71.60;;;3.04;64.97;95708.31;5047462;28;20533;-77
2023/01/16 09:27:31;;;;;;;2.50;1.43;;;3.90;71.50;;;3.44;64.30;95759.56;5048496;28;20463;-80
2023/01/16 09:29:58;;;;;;;6.90;1.60;;;3.90;70.80;;;3.72;63.92;95756.28;5030271;28;20454;-81
2023/01/16 09:32:27;;;;;;;5.43;1.47;;;4.10;70.60;;;3.36;63.51;95721.44;5031654;28;20447;-79
2023/01/16 09:34:54;;;;;;;4.30;1.10;;;4.10;70.00;;;3.64;62.86;95760.09;5049525;28;20515;-79
2023/01/16 09:37:24;;;;;;;1.53;0.93;;;4.20;69.30;;;3.09;62.64;95655.06;5045033;28;20489;-82
2023/01/16 09:39:51;;;;;;;2.80;0.80;;;4.20;68.20;;;3.78;62.10;95723.31;5032164;28;20537;-79
2023/01/16 09:45:41;;;;;;;1.00;0.90;;;4.40;67.70;;;3.99;61.35;95736.38;5031821;28;20576;-82
2023/01/16 09:48:17;;;;;;;2.00;0.97;;;4.50;67.30;;;4.00;61.07;95727.31;5033411;28;20419;-79
2023/01/16 09:50:50;;;;;;;1.23;0.80;;;4.50;66.90;;;4.19;60.90;95726.19;5059513;28;20491;-81
2023/01/16 09:59:06;;;;;;;1.63;0.77;;;4.80;66.20;;;4.21;59.02;95705.38;5047193;28;20487;-78
2023/01/16 10:01:42;;;;;;;1.33;0.63;;;4.90;64.30;;;4.40;59.28;95681.22;5034806;28;20498;-81
2023/01/16 10:04:19;;;;;;;1.23;0.60;;;4.90;64.40;;;4.48;58.31;95683.53;5041977;28;20508;-85
2023/01/16 10:07:00;;;;;;;1.20;1.07;;;5.00;63.30;;;4.35;57.23;95663.19;5048181;28;20526;-83
2023/01/16 10:09:38;;;;;;;1.87;0.80;;;5.00;62.40;;;4.56;57.72;95668.19;5049951;28;20468;-79
2023/01/16 10:12:12;;;;;;;1.17;0.80;;;5.00;62.30;;;4.50;56.97;95660.06;5040792;28;20441;-78
2023/01/16 10:15:09;;;;;;;1.48;0.60;;;5.10;61.40;;;4.62;56.72;95651.16;5034269;28;20447;-82
2023/01/16 10:17:47;;;;;;;1.37;0.80;;;5.10;61.20;;;4.66;56.90;95647.78;5044019;28;20223;-79
2023/01/16 10:20:48;;;;;;;2.43;0.83;;;5.10;61.40;;;4.68;56.50;95644.91;5051507;28;20976;-79
2023/01/16 10:23:45;;;;;;;1.47;0.60;;;5.20;61.00;;;4.59;56.31;95641.78;5062500;28;20916;-77
2023/01/16 10:26:20;;;;;;;1.87;0.80;;;5.20;60.10;;;4.75;56.08;95632.19;5048697;28;20750;-78
2023/01/16 10:29:00;;;;;;;1.27;0.57;;;5.20;60.30;;;4.67;56.31;95605.81;5051533;28;20460;-79
2023/01/16 10:31:34;;;;;;;1.20;0.70;;;5.20;60.20;;;4.61;57.06;95617.47;5057013;28;20453;-78
2023/01/16 10:34:07;;;;;;;2.57;0.60;;;5.20;60.00;;;3.94;56.23;95512.63;5058540;28;20462;-79
2023/01/16 10:36:41;;;;;;;1.20;0.73;;;5.20;59.80;;;4.81;56.34;95606.34;5043779;28;20456;-79
2023/01/16 10:39:14;;;;;;;0.90;0.77;;;5.20;60.10;;;4.77;56.26;95595.31;5061098;28;20447;-77
2023/01/16 10:50:11;;;;;;;1.30;0.80;;;5.30;59.00;;;4.73;55.86;95580.78;5055917;28;20440;-72
2023/01/16 10:52:40;;;;;;;0.70;0.60;;;5.30;58.80;;;4.82;54.57;95568.66;5051878;28;21026;-74
2023/01/16 10:55:09;;;;;;;0.77;0.60;;;5.40;58.20;;;4.95;54.33;95575.59;5033659;28;20447;-73
2023/01/16 10:57:42;;;;;;;0.83;0.83;;;5.50;58.10;;;5.04;55.05;95575.22;5032591;28;20879;-73
2023/01/16 11:00:18;;;;;;;1.70;0.90;;;5.60;58.10;;;5.44;53.89;95566.25;5052939;28;20836;-75
2023/01/16 11:02:48;;;;;;;3.43;0.83;;;5.80;58.20;;;5.33;54.16;95559.13;5036973;28;20446;-74
2023/01/16 11:05:29;;;;;;;1.60;0.50;;;5.90;57.80;;;5.06;54.42;95535.63;5057160;28;20453;-74
2023/01/16 11:08:07;;;;;;;1.43;0.70;;;5.80;57.50;;;5.41;53.93;95539.16;5050474;28;20489;-73
2023/01/16 11:10:34;;;;;;;0.80;0.80;;;5.90;57.80;;;5.65;53.79;95535.25;5054154;28;20488;-73
2023/01/16 11:18:49;;;;;;;1.00;0.60;;;5.80;57.20;;;4.80;54.77;95501.22;5027488;28;20458;-74
2023/01/16 11:21:26;;;;;;;3.30;1.20;;;5.50;57.20;;;4.85;54.70;95479.06;5051222;28;20866;-73
2023/01/16 11:24:00;;;;;;;1.07;0.93;;;5.50;57.60;;;5.29;54.90;95477.63;5035816;28;21170;-73
2023/01/16 11:26:28;;;;;;;1.37;1.00;;;5.60;57.90;;;5.08;55.36;95446.03;5033455;28;20476;-74
2023/01/16 11:28:57;;;;;;;1.90;0.73;;;5.70;58.00;;;5.55;54.62;95456.59;5026753;28;20540;-73
2023/01/16 11:31:30;;;;;;;1.00;0.70;;;5.90;58.20;;;5.51;54.04;95440.19;5040229;28;20454;-75
2023/01/16 11:34:02;;;;;;;1.73;1.00;;;6.10;57.30;;;5.92;53.07;95446.13;5043943;28;20462;-71